sensor_id;sensor_type;location;lat;lon;timestamp;P1;durP1;ratioP1;P2;durP2;ratioP2
15814;SDS011;8008;50.024;8.172;2023-08-06T03:02:40;3.70;;;2.03;;
15814;SDS011;8008;50.024;8.172;2023-08-06T03:05:19;2.22;;;2.00;;
15814;SDS011;8008;50.024;8.172;2023-08-06T03:07:48;3.58;;;2.38;;
15814;SDS011;8008;50.024;8.172;2023-08-06T03:10:21;4.38;;;2.25;;
15814;SDS011;8008;50.024;8.172;2023-08-06T03:12:51;3.45;;;2.10;;
15814;SDS011;8008;50.024;8.172;2023-08-06T03:15:20;3.55;;;2.10;;
15814;SDS011;8008;50.024;8.172;2023-08-06T03:17:51;4.55;;;2.40;;
15814;SDS011;8008;50.024;8.172;2023-08-06T03:20:20;2.22;;;2.10;;
15814;SDS011;8008;50.024;8.172;2023-08-06T03:22:49;2.38;;;2.17;;
15814;SDS011;8008;50.024;8.172;2023-08-06T03:25:17;2.67;;;2.33;;
15814;SDS011;8008;50.024;8.172;2023-08-06T03:27:47;4.53;;;2.08;;
15814;SDS011;8008;50.024;8.172;2023-08-06T03:30:17;5.03;;;2.47;;
15814;SDS011;8008;50.024;8.172;2023-08-06T03:32:47;3.35;;;2.33;;
15814;SDS011;8008;50.024;8.172;2023-08-06T03:35:19;2.67;;;2.33;;
15814;SDS011;8008;50.024;8.172;2023-08-06T03:37:48;2.47;;;2.22;;
15814;SDS011;8008;50.024;8.172;2023-08-06T03:40:16;3.72;;;2.38;;
15814;SDS011;8008;50.024;8.172;2023-08-06T03:42:45;3.75;;;2.42;;
15814;SDS011;8008;50.024;8.172;2023-08-06T03:45:12;2.50;;;2.30;;
15814;SDS011;8008;50.024;8.172;2023-08-06T03:47:42;2.63;;;2.42;;
15814;SDS011;8008;50.024;8.172;2023-08-06T03:50:10;3.35;;;2.50;;
15814;SDS011;8008;50.024;8.172;2023-08-06T03:52:40;2.45;;;2.17;;
15814;SDS011;8008;50.024;8.172;2023-08-06T03:55:08;5.50;;;2.55;;
15814;SDS011;8008;50.024;8.172;2023-08-06T03:57:36;2.72;;;2.53;;
15814;SDS011;8008;50.024;8.172;2023-08-06T04:00:04;2.67;;;2.20;;
15814;SDS011;8008;50.024;8.172;2023-08-06T04:02:40;5.05;;;2.45;;
15814;SDS011;8008;50.024;8.172;2023-08-06T04:05:12;2.75;;;2.03;;
15814;SDS011;8008;50.024;8.172;2023-08-06T04:07:41;3.10;;;2.30;;
15814;SDS011;8008;50.024;8.172;2023-08-06T04:10:09;4.65;;;2.40;;
15814;SDS011;8008;50.024;8.172;2023-08-06T04:12:37;3.55;;;2.20;;
15814;SDS011;8008;50.024;8.172;2023-08-06T04:15:06;4.97;;;2.08;;
15814;SDS011;8008;50.024;8.172;2023-08-06T04:17:34;2.85;;;2.00;;
15814;SDS011;8008;50.024;8.172;2023-08-06T04:20:03;3.70;;;1.83;;
15814;SDS011;8008;50.024;8.172;2023-08-06T04:22:32;4.18;;;2.25;;
15814;SDS011;8008;50.024;8.172;2023-08-06T04:25:01;3.05;;;1.88;;
15814;SDS011;8008;50.024;8.172;2023-08-06T04:27:29;3.92;;;1.83;;
15814;SDS011;8008;50.024;8.172;2023-08-06T04:29:57;2.95;;;1.85;;
15814;SDS011;8008;50.024;8.172;2023-08-06T04:32:25;2.88;;;2.00;;
15814;SDS011;8008;50.024;8.172;2023-08-06T04:34:55;5.20;;;2.05;;
15814;SDS011;8008;50.024;8.172;2023-08-06T04:37:23;3.20;;;1.73;;
15814;SDS011;8008;50.024;8.172;2023-08-06T04:39:51;4.30;;;1.77;;
15814;SDS011;8008;50.024;8.172;2023-08-06T04:42:21;1.85;;;1.70;;
15814;SDS011;8008;50.024;8.172;2023-08-06T04:44:49;3.28;;;1.65;;
15814;SDS011;8008;50.024;8.172;2023-08-06T04:47:17;3.83;;;1.70;;
15814;SDS011;8008;50.024;8.172;2023-08-06T04:49:45;2.75;;;1.50;;
15814;SDS011;8008;50.024;8.172;2023-08-06T04:52:13;3.63;;;1.50;;
15814;SDS011;8008;50.024;8.172;2023-08-06T04:54:41;4.35;;;1.48;;
15814;SDS011;8008;50.024;8.172;2023-08-06T04:57:10;2.35;;;1.52;;
15814;SDS011;8008;50.024;8.172;2023-08-06T04:59:40;2.60;;;1.45;;
15814;SDS011;8008;50.024;8.172;2023-08-06T05:02:07;1.42;;;1.20;;
15814;SDS011;8008;50.024;8.172;2023-08-06T05:04:35;1.90;;;1.30;;
15814;SDS011;8008;50.024;8.172;2023-08-06T05:07:04;1.90;;;1.30;;
15814;SDS011;8008;50.024;8.172;2023-08-06T05:09:32;2.55;;;1.15;;
15814;SDS011;8008;50.024;8.172;2023-08-06T05:12:00;2.00;;;1.27;;
15814;SDS011;8008;50.024;8.172;2023-08-06T05:14:29;1.73;;;1.15;;
15814;SDS011;8008;50.024;8.172;2023-08-06T05:16:58;2.28;;;1.20;;
15814;SDS011;8008;50.024;8.172;2023-08-06T05:19:28;3.40;;;1.13;;
15814;SDS011;8008;50.024;8.172;2023-08-06T05:21:56;3.42;;;1.42;;
15814;SDS011;8008;50.024;8.172;2023-08-06T05:24:24;3.70;;;1.20;;
15814;SDS011;8008;50.024;8.172;2023-08-06T05:26:52;1.55;;;1.00;;
15814;SDS011;8008;50.024;8.172;2023-08-06T05:29:20;1.73;;;0.90;;
15814;SDS011;8008;50.024;8.172;2023-08-06T05:31:48;2.67;;;1.05;;
15814;SDS011;8008;50.024;8.172;2023-08-06T05:34:17;1.67;;;0.85;;
15814;SDS011;8008;50.024;8.172;2023-08-06T05:36:45;1.90;;;0.90;;
15814;SDS011;8008;50.024;8.172;2023-08-06T05:39:13;1.08;;;0.80;;
15814;SDS011;8008;50.024;8.172;2023-08-06T05:41:41;3.58;;;0.90;;
15814;SDS011;8008;50.024;8.172;2023-08-06T05:44:09;2.67;;;0.85;;
15814;SDS011;8008;50.024;8.172;2023-08-06T05:46:37;1.15;;;0.80;;
15814;SDS011;8008;50.024;8.172;2023-08-06T05:49:05;2.03;;;0.82;;
15814;SDS011;8008;50.024;8.172;2023-08-06T05:51:34;0.82;;;0.65;;
15814;SDS011;8008;50.024;8.172;2023-08-06T05:54:02;0.88;;;0.88;;
15814;SDS011;8008;50.024;8.172;2023-08-06T05:56:30;0.70;;;0.70;;
15814;SDS011;8008;50.024;8.172;2023-08-06T05:58:59;1.55;;;0.90;;
15814;SDS011;8008;50.024;8.172;2023-08-06T06:01:27;1.02;;;0.77;;
15814;SDS011;8008;50.024;8.172;2023-08-06T06:03:55;1.52;;;0.65;;
15814;SDS011;8008;50.024;8.172;2023-08-06T06:06:23;1.52;;;1.00;;
15814;SDS011;8008;50.024;8.172;2023-08-06T06:08:52;1.10;;;0.80;;
15814;SDS011;8008;50.024;8.172;2023-08-06T06:11:20;0.80;;;0.80;;
15814;SDS011;8008;50.024;8.172;2023-08-06T06:13:49;0.77;;;0.77;;
15814;SDS011;8008;50.024;8.172;2023-08-06T06:16:18;2.00;;;0.93;;
15814;SDS011;8008;50.024;8.172;2023-08-06T06:18:46;0.68;;;0.68;;
15814;SDS011;8008;50.024;8.172;2023-08-06T06:21:14;1.35;;;1.25;;
15814;SDS011;8008;50.024;8.172;2023-08-06T06:23:42;3.70;;;3.40;;
15814;SDS011;8008;50.024;8.172;2023-08-06T06:26:12;2.28;;;2.00;;
15814;SDS011;8008;50.024;8.172;2023-08-06T06:28:40;1.63;;;1.20;;
15814;SDS011;8008;50.024;8.172;2023-08-06T06:31:08;1.80;;;1.70;;
15814;SDS011;8008;50.024;8.172;2023-08-06T06:33:36;1.05;;;0.80;;
15814;SDS011;8008;50.024;8.172;2023-08-06T06:36:04;1.95;;;1.27;;
15814;SDS011;8008;50.024;8.172;2023-08-06T06:38:33;2.15;;;1.10;;
15814;SDS011;8008;50.024;8.172;2023-08-06T06:41:01;1.20;;;1.10;;
15814;SDS011;8008;50.024;8.172;2023-08-06T06:43:31;2.28;;;1.20;;
15814;SDS011;8008;50.024;8.172;2023-08-06T06:46:00;1.27;;;1.17;;
15814;SDS011;8008;50.024;8.172;2023-08-06T06:48:28;1.95;;;1.17;;
15814;SDS011;8008;50.024;8.172;2023-08-06T06:50:57;1.63;;;1.52;;
15814;SDS011;8008;50.024;8.172;2023-08-06T06:53:25;1.40;;;1.30;;
15814;SDS011;8008;50.024;8.172;2023-08-06T06:55:54;2.03;;;1.10;;
15814;SDS011;8008;50.024;8.172;2023-08-06T06:58:22;1.38;;;0.90;;
15814;SDS011;8008;50.024;8.172;2023-08-06T07:00:51;1.10;;;1.00;;
15814;SDS011;8008;50.024;8.172;2023-08-06T07:03:19;1.42;;;1.05;;
15814;SDS011;8008;50.024;8.172;2023-08-06T07:05:49;1.17;;;1.02;;
15814;SDS011;8008;50.024;8.172;2023-08-06T07:08:17;1.50;;;0.88;;
15814;SDS011;8008;50.024;8.172;2023-08-06T07:10:45;1.58;;;0.90;;
15814;SDS011;8008;50.024;8.172;2023-08-06T07:13:13;1.15;;;1.02;;
15814;SDS011;8008;50.024;8.172;2023-08-06T07:15:42;0.90;;;0.90;;
15814;SDS011;8008;50.024;8.172;2023-08-06T07:18:12;1.25;;;0.82;;
15814;SDS011;8008;50.024;8.172;2023-08-06T07:20:39;1.85;;;1.00;;
15814;SDS011;8008;50.024;8.172;2023-08-06T07:23:07;2.53;;;1.02;;
15814;SDS011;8008;50.024;8.172;2023-08-06T07:25:35;0.80;;;0.80;;
15814;SDS011;8008;50.024;8.172;2023-08-06T07:28:03;1.10;;;0.88;;
15814;SDS011;8008;50.024;8.172;2023-08-06T07:30:31;0.80;;;0.80;;
15814;SDS011;8008;50.024;8.172;2023-08-06T07:32:59;0.82;;;0.70;;
15814;SDS011;8008;50.024;8.172;2023-08-06T07:35:29;1.55;;;0.75;;
15814;SDS011;8008;50.024;8.172;2023-08-06T07:37:57;0.52;;;0.52;;
15814;SDS011;8008;50.024;8.172;2023-08-06T07:40:25;0.70;;;0.70;;
15814;SDS011;8008;50.024;8.172;2023-08-06T07:42:53;0.70;;;0.68;;
15814;SDS011;8008;50.024;8.172;2023-08-06T07:45:21;0.55;;;0.55;;
15814;SDS011;8008;50.024;8.172;2023-08-06T07:47:49;1.33;;;0.57;;
15814;SDS011;8008;50.024;8.172;2023-08-06T07:50:17;0.70;;;0.70;;
15814;SDS011;8008;50.024;8.172;2023-08-06T07:52:47;0.73;;;0.60;;
15814;SDS011;8008;50.024;8.172;2023-08-06T07:55:15;0.60;;;0.60;;
15814;SDS011;8008;50.024;8.172;2023-08-06T07:57:43;0.50;;;0.50;;
15814;SDS011;8008;50.024;8.172;2023-08-06T08:00:11;0.93;;;0.63;;
15814;SDS011;8008;50.024;8.172;2023-08-06T08:02:39;0.60;;;0.60;;
15814;SDS011;8008;50.024;8.172;2023-08-06T08:05:08;1.15;;;0.60;;
15814;SDS011;8008;50.024;8.172;2023-08-06T08:07:36;0.50;;;0.50;;
15814;SDS011;8008;50.024;8.172;2023-08-06T08:10:06;1.23;;;0.60;;
15814;SDS011;8008;50.024;8.172;2023-08-06T08:12:35;0.40;;;0.40;;
15814;SDS011;8008;50.024;8.172;2023-08-06T08:15:03;0.50;;;0.50;;
15814;SDS011;8008;50.024;8.172;2023-08-06T08:17:32;0.50;;;0.50;;
15814;SDS011;8008;50.024;8.172;2023-08-06T08:20:01;0.60;;;0.40;;
15814;SDS011;8008;50.024;8.172;2023-08-06T08:22:29;0.30;;;0.30;;
15814;SDS011;8008;50.024;8.172;2023-08-06T08:24:57;0.75;;;0.50;;
15814;SDS011;8008;50.024;8.172;2023-08-06T08:27:27;0.50;;;0.50;;
15814;SDS011;8008;50.024;8.172;2023-08-06T08:29:56;0.80;;;0.80;;
15814;SDS011;8008;50.024;8.172;2023-08-06T08:32:24;0.50;;;0.50;;
15814;SDS011;8008;50.024;8.172;2023-08-06T08:34:52;0.70;;;0.70;;
15814;SDS011;8008;50.024;8.172;2023-08-06T08:37:20;0.60;;;0.60;;
15814;SDS011;8008;50.024;8.172;2023-08-06T08:39:48;0.82;;;0.82;;
15814;SDS011;8008;50.024;8.172;2023-08-06T08:42:16;0.95;;;0.80;;
15814;SDS011;8008;50.024;8.172;2023-08-06T08:44:45;0.85;;;0.85;;
15814;SDS011;8008;50.024;8.172;2023-08-06T08:47:14;0.70;;;0.70;;
15814;SDS011;8008;50.024;8.172;2023-08-06T08:49:42;0.82;;;0.80;;
15814;SDS011;8008;50.024;8.172;2023-08-06T08:52:12;0.95;;;0.80;;
15814;SDS011;8008;50.024;8.172;2023-08-06T08:54:44;0.50;;;0.50;;
15814;SDS011;8008;50.024;8.172;2023-08-06T08:57:13;0.82;;;0.82;;
15814;SDS011;8008;50.024;8.172;2023-08-06T08:59:41;0.65;;;0.65;;
15814;SDS011;8008;50.024;8.172;2023-08-06T09:02:10;0.60;;;0.60;;
15814;SDS011;8008;50.024;8.172;2023-08-06T09:04:40;0.75;;;0.70;;
15814;SDS011;8008;50.024;8.172;2023-08-06T09:07:09;0.80;;;0.80;;
15814;SDS011;8008;50.024;8.172;2023-08-06T09:09:41;0.60;;;0.60;;
15814;SDS011;8008;50.024;8.172;2023-08-06T09:12:12;0.50;;;0.50;;
15814;SDS011;8008;50.024;8.172;2023-08-06T09:14:42;0.43;;;0.43;;
15814;SDS011;8008;50.024;8.172;2023-08-06T09:17:11;0.43;;;0.43;;
15814;SDS011;8008;50.024;8.172;2023-08-06T09:19:41;0.80;;;0.60;;
15814;SDS011;8008;50.024;8.172;2023-08-06T09:22:12;0.82;;;0.60;;
15814;SDS011;8008;50.024;8.172;2023-08-06T09:24:40;2.45;;;0.60;;
15814;SDS011;8008;50.024;8.172;2023-08-06T09:27:12;0.40;;;0.40;;
15814;SDS011;8008;50.024;8.172;2023-08-06T09:29:41;0.60;;;0.47;;
15814;SDS011;8008;50.024;8.172;2023-08-06T09:32:12;2.45;;;0.52;;
15814;SDS011;8008;50.024;8.172;2023-08-06T09:34:41;0.52;;;0.50;;
15814;SDS011;8008;50.024;8.172;2023-08-06T09:37:10;0.73;;;0.40;;
15814;SDS011;8008;50.024;8.172;2023-08-06T09:39:38;2.63;;;0.90;;
15814;SDS011;8008;50.024;8.172;2023-08-06T09:42:07;0.70;;;0.70;;
15814;SDS011;8008;50.024;8.172;2023-08-06T09:44:35;2.47;;;0.88;;
15814;SDS011;8008;50.024;8.172;2023-08-06T09:47:05;2.28;;;1.27;;
15814;SDS011;8008;50.024;8.172;2023-08-06T09:49:42;3.60;;;1.20;;
15814;SDS011;8008;50.024;8.172;2023-08-06T09:52:12;0.70;;;0.70;;
15814;SDS011;8008;50.024;8.172;2023-08-06T09:54:42;0.50;;;0.50;;
15814;SDS011;8008;50.024;8.172;2023-08-06T09:57:12;2.05;;;0.70;;
15814;SDS011;8008;50.024;8.172;2023-08-06T09:59:40;0.70;;;0.70;;
15814;SDS011;8008;50.024;8.172;2023-08-06T10:02:12;0.60;;;0.60;;
15814;SDS011;8008;50.024;8.172;2023-08-06T10:04:42;0.50;;;0.50;;
15814;SDS011;8008;50.024;8.172;2023-08-06T10:07:21;0.55;;;0.55;;
15814;SDS011;8008;50.024;8.172;2023-08-06T10:09:50;1.20;;;0.45;;
15814;SDS011;8008;50.024;8.172;2023-08-06T10:12:18;0.40;;;0.40;;
15814;SDS011;8008;50.024;8.172;2023-08-06T10:14:46;0.35;;;0.35;;
15814;SDS011;8008;50.024;8.172;2023-08-06T10:17:17;0.52;;;0.47;;
15814;SDS011;8008;50.024;8.172;2023-08-06T10:19:46;0.40;;;0.40;;
15814;SDS011;8008;50.024;8.172;2023-08-06T10:22:15;0.60;;;0.47;;
15814;SDS011;8008;50.024;8.172;2023-08-06T10:24:48;1.98;;;0.50;;
15814;SDS011;8008;50.024;8.172;2023-08-06T10:27:21;0.50;;;0.50;;
15814;SDS011;8008;50.024;8.172;2023-08-06T10:29:50;0.40;;;0.40;;
15814;SDS011;8008;50.024;8.172;2023-08-06T10:32:17;0.57;;;0.40;;
15814;SDS011;8008;50.024;8.172;2023-08-06T10:34:57;0.50;;;0.50;;
15814;SDS011;8008;50.024;8.172;2023-08-06T10:37:34;0.30;;;0.30;;
15814;SDS011;8008;50.024;8.172;2023-08-06T10:40:03;0.40;;;0.40;;
15814;SDS011;8008;50.024;8.172;2023-08-06T10:42:34;1.38;;;0.50;;
15814;SDS011;8008;50.024;8.172;2023-08-06T10:45:11;0.70;;;0.50;;
15814;SDS011;8008;50.024;8.172;2023-08-06T10:47:40;0.98;;;0.60;;
15814;SDS011;8008;50.024;8.172;2023-08-06T10:50:12;0.35;;;0.35;;
15814;SDS011;8008;50.024;8.172;2023-08-06T10:52:43;0.50;;;0.50;;
15814;SDS011;8008;50.024;8.172;2023-08-06T10:55:11;0.50;;;0.50;;
15814;SDS011;8008;50.024;8.172;2023-08-06T10:57:39;2.03;;;0.70;;
15814;SDS011;8008;50.024;8.172;2023-08-06T11:00:08;0.20;;;0.20;;
15814;SDS011;8008;50.024;8.172;2023-08-06T11:02:42;0.93;;;0.30;;
15814;SDS011;8008;50.024;8.172;2023-08-06T11:05:13;0.30;;;0.30;;
15814;SDS011;8008;50.024;8.172;2023-08-06T11:07:41;0.25;;;0.25;;
15814;SDS011;8008;50.024;8.172;2023-08-06T11:10:09;0.45;;;0.20;;
15814;SDS011;8008;50.024;8.172;2023-08-06T11:12:38;0.20;;;0.20;;
15814;SDS011;8008;50.024;8.172;2023-08-06T11:15:07;0.28;;;0.28;;
15814;SDS011;8008;50.024;8.172;2023-08-06T11:17:36;0.38;;;0.38;;
15814;SDS011;8008;50.024;8.172;2023-08-06T11:20:07;0.75;;;0.20;;
15814;SDS011;8008;50.024;8.172;2023-08-06T11:22:37;0.20;;;0.20;;
15814;SDS011;8008;50.024;8.172;2023-08-06T11:25:06;0.20;;;0.20;;
15814;SDS011;8008;50.024;8.172;2023-08-06T11:27:34;0.20;;;0.20;;
15814;SDS011;8008;50.024;8.172;2023-08-06T11:30:02;0.75;;;0.38;;
15814;SDS011;8008;50.024;8.172;2023-08-06T11:32:31;0.20;;;0.20;;
15814;SDS011;8008;50.024;8.172;2023-08-06T11:35:09;0.25;;;0.25;;
15814;SDS011;8008;50.024;8.172;2023-08-06T11:37:39;0.57;;;0.35;;
15814;SDS011;8008;50.024;8.172;2023-08-06T11:40:12;0.40;;;0.40;;
15814;SDS011;8008;50.024;8.172;2023-08-06T11:42:42;0.40;;;0.40;;
15814;SDS011;8008;50.024;8.172;2023-08-06T11:45:10;0.35;;;0.35;;
15814;SDS011;8008;50.024;8.172;2023-08-06T11:47:38;0.52;;;0.45;;
15814;SDS011;8008;50.024;8.172;2023-08-06T11:50:07;0.30;;;0.30;;
15814;SDS011;8008;50.024;8.172;2023-08-06T11:52:38;0.77;;;0.60;;
15814;SDS011;8008;50.024;8.172;2023-08-06T11:55:08;0.47;;;0.47;;
15814;SDS011;8008;50.024;8.172;2023-08-06T11:57:37;0.50;;;0.50;;
15814;SDS011;8008;50.024;8.172;2023-08-06T12:00:07;0.60;;;0.47;;
15814;SDS011;8008;50.024;8.172;2023-08-06T12:02:43;0.30;;;0.30;;
15814;SDS011;8008;50.024;8.172;2023-08-06T12:05:12;0.70;;;0.60;;
15814;SDS011;8008;50.024;8.172;2023-08-06T12:07:43;0.60;;;0.60;;
15814;SDS011;8008;50.024;8.172;2023-08-06T12:10:12;0.68;;;0.60;;
15814;SDS011;8008;50.024;8.172;2023-08-06T12:12:41;1.13;;;0.75;;
15814;SDS011;8008;50.024;8.172;2023-08-06T12:15:09;1.98;;;0.75;;
15814;SDS011;8008;50.024;8.172;2023-08-06T12:17:38;0.80;;;0.60;;
15814;SDS011;8008;50.024;8.172;2023-08-06T12:20:06;1.25;;;0.93;;
15814;SDS011;8008;50.024;8.172;2023-08-06T12:22:35;1.10;;;1.00;;
15814;SDS011;8008;50.024;8.172;2023-08-06T12:25:07;1.63;;;0.70;;
15814;SDS011;8008;50.024;8.172;2023-08-06T12:27:38;0.60;;;0.60;;
15814;SDS011;8008;50.024;8.172;2023-08-06T12:30:07;1.35;;;0.75;;
15814;SDS011;8008;50.024;8.172;2023-08-06T12:32:36;1.33;;;1.02;;
15814;SDS011;8008;50.024;8.172;2023-08-06T12:35:05;4.10;;;0.75;;
15814;SDS011;8008;50.024;8.172;2023-08-06T12:37:34;1.38;;;0.70;;
15814;SDS011;8008;50.024;8.172;2023-08-06T12:40:05;1.65;;;1.10;;
15814;SDS011;8008;50.024;8.172;2023-08-06T12:42:55;0.90;;;0.90;;
15814;SDS011;8008;50.024;8.172;2023-08-06T12:45:23;2.00;;;0.90;;
15814;SDS011;8008;50.024;8.172;2023-08-06T12:47:50;3.45;;;0.90;;
15814;SDS011;8008;50.024;8.172;2023-08-06T12:50:18;0.98;;;0.80;;
15814;SDS011;8008;50.024;8.172;2023-08-06T12:52:47;1.77;;;0.80;;
15814;SDS011;8008;50.024;8.172;2023-08-06T12:55:16;1.48;;;0.82;;
15814;SDS011;8008;50.024;8.172;2023-08-06T12:57:44;1.10;;;1.00;;
15814;SDS011;8008;50.024;8.172;2023-08-06T13:00:23;1.40;;;1.25;;
15814;SDS011;8008;50.024;8.172;2023-08-06T13:02:51;2.72;;;0.98;;
15814;SDS011;8008;50.024;8.172;2023-08-06T13:05:20;1.15;;;1.00;;
15814;SDS011;8008;50.024;8.172;2023-08-06T13:07:48;2.20;;;1.20;;
15814;SDS011;8008;50.024;8.172;2023-08-06T13:10:17;1.90;;;0.90;;
15814;SDS011;8008;50.024;8.172;2023-08-06T13:12:46;1.42;;;0.80;;
15814;SDS011;8008;50.024;8.172;2023-08-06T13:15:14;1.45;;;0.93;;
15814;SDS011;8008;50.024;8.172;2023-08-06T13:17:43;1.77;;;1.05;;
15814;SDS011;8008;50.024;8.172;2023-08-06T13:20:12;2.53;;;0.88;;
15814;SDS011;8008;50.024;8.172;2023-08-06T13:22:42;3.05;;;1.17;;
15814;SDS011;8008;50.024;8.172;2023-08-06T13:25:12;1.60;;;0.95;;
15814;SDS011;8008;50.024;8.172;2023-08-06T13:27:42;0.90;;;0.90;;
15814;SDS011;8008;50.024;8.172;2023-08-06T13:30:12;0.60;;;0.60;;
15814;SDS011;8008;50.024;8.172;2023-08-06T13:32:39;0.63;;;0.63;;
15814;SDS011;8008;50.024;8.172;2023-08-06T13:35:08;0.73;;;0.50;;
15814;SDS011;8008;50.024;8.172;2023-08-06T13:37:36;1.55;;;0.70;;
15814;SDS011;8008;50.024;8.172;2023-08-06T13:40:04;0.70;;;0.63;;
15814;SDS011;8008;50.024;8.172;2023-08-06T13:42:33;0.57;;;0.50;;
15814;SDS011;8008;50.024;8.172;2023-08-06T13:45:03;0.65;;;0.50;;
15814;SDS011;8008;50.024;8.172;2023-08-06T13:47:32;0.55;;;0.50;;
15814;SDS011;8008;50.024;8.172;2023-08-06T13:50:00;1.80;;;0.52;;
15814;SDS011;8008;50.024;8.172;2023-08-06T13:52:29;0.80;;;0.65;;
15814;SDS011;8008;50.024;8.172;2023-08-06T13:54:57;0.40;;;0.30;;
15814;SDS011;8008;50.024;8.172;2023-08-06T13:57:25;1.20;;;0.50;;
15814;SDS011;8008;50.024;8.172;2023-08-06T13:59:53;1.65;;;0.68;;
15814;SDS011;8008;50.024;8.172;2023-08-06T14:02:22;0.70;;;0.63;;
15814;SDS011;8008;50.024;8.172;2023-08-06T14:04:51;1.90;;;0.40;;
15814;SDS011;8008;50.024;8.172;2023-08-06T14:07:20;1.00;;;0.60;;
15814;SDS011;8008;50.024;8.172;2023-08-06T14:09:48;0.52;;;0.47;;
15814;SDS011;8008;50.024;8.172;2023-08-06T14:12:16;0.60;;;0.60;;
15814;SDS011;8008;50.024;8.172;2023-08-06T14:14:44;0.60;;;0.60;;
15814;SDS011;8008;50.024;8.172;2023-08-06T14:17:12;0.88;;;0.60;;
15814;SDS011;8008;50.024;8.172;2023-08-06T14:19:41;0.30;;;0.30;;
15814;SDS011;8008;50.024;8.172;2023-08-06T14:22:09;1.55;;;0.60;;
15814;SDS011;8008;50.024;8.172;2023-08-06T14:24:37;0.63;;;0.50;;
15814;SDS011;8008;50.024;8.172;2023-08-06T14:27:05;1.42;;;0.68;;
15814;SDS011;8008;50.024;8.172;2023-08-06T14:29:33;0.52;;;0.50;;
15814;SDS011;8008;50.024;8.172;2023-08-06T14:32:02;1.33;;;0.50;;
15814;SDS011;8008;50.024;8.172;2023-08-06T14:34:30;0.73;;;0.35;;
15814;SDS011;8008;50.024;8.172;2023-08-06T14:37:00;0.52;;;0.50;;
15814;SDS011;8008;50.024;8.172;2023-08-06T14:39:28;0.43;;;0.43;;
15814;SDS011;8008;50.024;8.172;2023-08-06T14:41:55;0.50;;;0.50;;
15814;SDS011;8008;50.024;8.172;2023-08-06T14:44:23;0.30;;;0.28;;
15814;SDS011;8008;50.024;8.172;2023-08-06T14:46:51;1.08;;;0.38;;
15814;SDS011;8008;50.024;8.172;2023-08-06T14:49:20;0.10;;;0.10;;
15814;SDS011;8008;50.024;8.172;2023-08-06T14:51:48;0.25;;;0.25;;
15814;SDS011;8008;50.024;8.172;2023-08-06T14:54:18;0.20;;;0.20;;
15814;SDS011;8008;50.024;8.172;2023-08-06T14:56:46;0.20;;;0.20;;
15814;SDS011;8008;50.024;8.172;2023-08-06T14:59:14;0.45;;;0.30;;
15814;SDS011;8008;50.024;8.172;2023-08-06T15:01:42;0.38;;;0.30;;
15814;SDS011;8008;50.024;8.172;2023-08-06T15:04:10;0.30;;;0.30;;
15814;SDS011;8008;50.024;8.172;2023-08-06T15:06:43;0.47;;;0.47;;
15814;SDS011;8008;50.024;8.172;2023-08-06T15:09:11;0.40;;;0.30;;
15814;SDS011;8008;50.024;8.172;2023-08-06T15:11:41;0.20;;;0.20;;
15814;SDS011;8008;50.024;8.172;2023-08-06T15:14:09;0.30;;;0.30;;
15814;SDS011;8008;50.024;8.172;2023-08-06T15:16:37;0.43;;;0.30;;
15814;SDS011;8008;50.024;8.172;2023-08-06T15:19:06;0.73;;;0.30;;
15814;SDS011;8008;50.024;8.172;2023-08-06T15:21:34;0.20;;;0.20;;
15814;SDS011;8008;50.024;8.172;2023-08-06T15:24:02;0.40;;;0.40;;
15814;SDS011;8008;50.024;8.172;2023-08-06T15:26:30;0.45;;;0.28;;
15814;SDS011;8008;50.024;8.172;2023-08-06T15:29:01;0.32;;;0.32;;
15814;SDS011;8008;50.024;8.172;2023-08-06T15:31:35;0.25;;;0.20;;
15814;SDS011;8008;50.024;8.172;2023-08-06T15:34:04;0.20;;;0.20;;
15814;SDS011;8008;50.024;8.172;2023-08-06T15:36:33;0.30;;;0.30;;
15814;SDS011;8008;50.024;8.172;2023-08-06T15:39:01;0.20;;;0.20;;
15814;SDS011;8008;50.024;8.172;2023-08-06T15:41:30;0.85;;;0.30;;
15814;SDS011;8008;50.024;8.172;2023-08-06T15:43:59;0.20;;;0.20;;
15814;SDS011;8008;50.024;8.172;2023-08-06T15:46:29;0.17;;;0.17;;
15814;SDS011;8008;50.024;8.172;2023-08-06T15:48:57;0.50;;;0.40;;
15814;SDS011;8008;50.024;8.172;2023-08-06T15:51:25;0.38;;;0.30;;
15814;SDS011;8008;50.024;8.172;2023-08-06T15:53:53;0.22;;;0.22;;
15814;SDS011;8008;50.024;8.172;2023-08-06T15:56:21;0.30;;;0.30;;
15814;SDS011;8008;50.024;8.172;2023-08-06T15:58:49;0.55;;;0.40;;
15814;SDS011;8008;50.024;8.172;2023-08-06T16:01:19;1.05;;;0.40;;
15814;SDS011;8008;50.024;8.172;2023-08-06T16:03:47;1.15;;;0.40;;
15814;SDS011;8008;50.024;8.172;2023-08-06T16:06:15;0.95;;;0.30;;
15814;SDS011;8008;50.024;8.172;2023-08-06T16:08:43;0.20;;;0.20;;
15814;SDS011;8008;50.024;8.172;2023-08-06T16:11:11;0.30;;;0.30;;
15814;SDS011;8008;50.024;8.172;2023-08-06T16:13:39;1.15;;;0.40;;
15814;SDS011;8008;50.024;8.172;2023-08-06T16:16:07;0.40;;;0.40;;
15814;SDS011;8008;50.024;8.172;2023-08-06T16:18:36;0.35;;;0.35;;
15814;SDS011;8008;50.024;8.172;2023-08-06T16:21:04;0.30;;;0.30;;
15814;SDS011;8008;50.024;8.172;2023-08-06T16:23:32;0.30;;;0.30;;
15814;SDS011;8008;50.024;8.172;2023-08-06T16:26:00;1.10;;;0.38;;
15814;SDS011;8008;50.024;8.172;2023-08-06T16:28:28;0.40;;;0.40;;
15814;SDS011;8008;50.024;8.172;2023-08-06T16:30:56;0.75;;;0.38;;
15814;SDS011;8008;50.024;8.172;2023-08-06T16:33:24;0.77;;;0.40;;
15814;SDS011;8008;50.024;8.172;2023-08-06T16:35:53;0.70;;;0.50;;
15814;SDS011;8008;50.024;8.172;2023-08-06T16:38:21;1.10;;;0.60;;
15814;SDS011;8008;50.024;8.172;2023-08-06T16:40:53;0.40;;;0.40;;
15814;SDS011;8008;50.024;8.172;2023-08-06T16:43:21;0.38;;;0.38;;
15814;SDS011;8008;50.024;8.172;2023-08-06T16:45:51;0.30;;;0.30;;
15814;SDS011;8008;50.024;8.172;2023-08-06T16:48:20;0.35;;;0.35;;
15814;SDS011;8008;50.024;8.172;2023-08-06T16:50:54;0.40;;;0.40;;
15814;SDS011;8008;50.024;8.172;2023-08-06T16:53:23;0.50;;;0.50;;
15814;SDS011;8008;50.024;8.172;2023-08-06T16:55:52;0.65;;;0.50;;
15814;SDS011;8008;50.024;8.172;2023-08-06T16:58:21;0.77;;;0.60;;
15814;SDS011;8008;50.024;8.172;2023-08-06T17:00:49;0.60;;;0.60;;
15814;SDS011;8008;50.024;8.172;2023-08-06T17:03:18;0.50;;;0.50;;
15814;SDS011;8008;50.024;8.172;2023-08-06T17:05:46;0.55;;;0.43;;
15814;SDS011;8008;50.024;8.172;2023-08-06T17:08:16;0.30;;;0.30;;
15814;SDS011;8008;50.024;8.172;2023-08-06T17:10:44;0.60;;;0.40;;
15814;SDS011;8008;50.024;8.172;2023-08-06T17:13:12;0.60;;;0.60;;
15814;SDS011;8008;50.024;8.172;2023-08-06T17:15:46;0.70;;;0.70;;
15814;SDS011;8008;50.024;8.172;2023-08-06T17:18:15;0.45;;;0.32;;
15814;SDS011;8008;50.024;8.172;2023-08-06T17:20:44;1.13;;;0.50;;
15814;SDS011;8008;50.024;8.172;2023-08-06T17:23:13;0.60;;;0.50;;
15814;SDS011;8008;50.024;8.172;2023-08-06T17:25:43;0.60;;;0.60;;
15814;SDS011;8008;50.024;8.172;2023-08-06T17:28:11;0.43;;;0.43;;
15814;SDS011;8008;50.024;8.172;2023-08-06T17:30:39;0.35;;;0.35;;
15814;SDS011;8008;50.024;8.172;2023-08-06T17:33:08;0.63;;;0.55;;
15814;SDS011;8008;50.024;8.172;2023-08-06T17:35:40;0.40;;;0.40;;
15814;SDS011;8008;50.024;8.172;2023-08-06T17:38:09;1.05;;;0.45;;
15814;SDS011;8008;50.024;8.172;2023-08-06T17:40:37;0.30;;;0.30;;
15814;SDS011;8008;50.024;8.172;2023-08-06T17:43:06;0.80;;;0.47;;
15814;SDS011;8008;50.024;8.172;2023-08-06T17:45:34;0.55;;;0.50;;
15814;SDS011;8008;50.024;8.172;2023-08-06T17:48:02;1.25;;;0.52;;
15814;SDS011;8008;50.024;8.172;2023-08-06T17:50:30;0.20;;;0.20;;
15814;SDS011;8008;50.024;8.172;2023-08-06T17:52:58;0.20;;;0.20;;
15814;SDS011;8008;50.024;8.172;2023-08-06T17:55:26;0.40;;;0.40;;
15814;SDS011;8008;50.024;8.172;2023-08-06T17:57:55;0.32;;;0.32;;
15814;SDS011;8008;50.024;8.172;2023-08-06T18:00:25;0.43;;;0.30;;
15814;SDS011;8008;50.024;8.172;2023-08-06T18:02:53;1.55;;;0.35;;
15814;SDS011;8008;50.024;8.172;2023-08-06T18:05:21;0.55;;;0.32;;
15814;SDS011;8008;50.024;8.172;2023-08-06T18:07:49;0.45;;;0.45;;
15814;SDS011;8008;50.024;8.172;2023-08-06T18:10:17;0.20;;;0.20;;
15814;SDS011;8008;50.024;8.172;2023-08-06T18:12:45;0.50;;;0.50;;